Time;durP1;ratioP1;P1;durP2;ratioP2;P2;SDS_P1;SDS_P2;PMS_P1;PMS_P2;Temp;Humidity;BMP_temperature;BMP_pressure;BME280_temperature;BME280_humidity;BME280_pressure;Samples;Min_cycle;Max_cycle;Signal;HPM_P1;HPM_P2
2022/06/21 00:00:13;;;;;;;;;;;;;;;13.78;72.79;97675.03;4814004;29;20077;-78
2022/06/21 00:02:39;;;;;;;;;;;;;;;13.74;73.13;97668.38;4813987;29;20300;-77
2022/06/21 00:05:06;;;;;;;;;;;;;;;13.88;72.34;97673.91;4813854;29;19932;-79
2022/06/21 00:07:31;;;;;;;;;;;;;;;13.74;72.52;97671.06;4813952;29;19936;-78
2022/06/21 00:09:59;;;;;;;;;;;;;;;13.68;72.76;97685.22;4828856;29;19932;-79
2022/06/21 00:12:24;;;;;;;;;;;;;;;13.64;72.84;97677.72;4814365;29;19986;-78
2022/06/21 00:14:50;;;;;;;;;;;;;;;13.56;73.01;97666.03;4828949;29;20021;-78
2022/06/21 00:17:18;;;;;;;;;;;;;;;13.56;72.76;97660.66;4828900;29;19932;-78
2022/06/21 00:19:44;;;;;;;;;;;;;;;13.69;72.74;97664.56;4794659;29;20325;-78
2022/06/21 00:22:14;;;;;;;;;;;;;;;13.57;72.48;97677.59;4779684;29;19960;-79
2022/06/21 00:24:39;;;;;;;;;;;;;;;13.56;72.46;97674.06;4794926;29;19929;-79
2022/06/21 00:27:15;;;;;;;;;;;;;;;13.48;72.67;97678.69;4779755;29;19936;-78
2022/06/21 00:29:40;;;;;;;;;;;;;;;13.57;72.13;97677.59;4795094;29;19929;-78
2022/06/21 00:32:10;;;;;;;;;;;;;;;13.62;71.97;97666.34;4809743;29;19990;-78
2022/06/21 00:34:36;;;;;;;;;;;;;;;13.56;71.98;97679.44;4779590;29;19943;-77
2022/06/21 00:37:01;;;;;;;;;;;;;;;13.52;71.76;97677.31;4809379;29;19929;-79
2022/06/21 00:39:27;;;;;;;;;;;;;;;13.62;71.75;97679.75;4809639;29;19928;-78
2022/06/21 00:42:00;;;;;;;;;;;;;;;13.60;71.63;97678.06;4809951;29;19958;-80
2022/06/21 00:44:36;;;;;;;;;;;;;;;13.63;71.31;97681.41;4794731;29;20390;-79
2022/06/21 00:47:06;;;;;;;;;;;;;;;13.58;71.34;97681.97;4794847;29;20024;-80
2022/06/21 00:49:35;;;;;;;;;;;;;;;13.53;70.93;97689.72;4794916;29;19986;-78
2022/06/21 00:52:12;;;;;;;;;;;;;;;13.54;71.16;97688.69;4794156;29;19929;-78
2022/06/21 00:54:56;;;;;;;;;;;;;;;13.47;71.22;97695.81;4794678;29;19929;-77
2022/06/21 00:57:25;;;;;;;;;;;;;;;13.42;71.33;97690.16;4783193;29;19929;-79
2022/06/21 00:59:53;;;;;;;;;;;;;;;13.47;70.81;97693.16;4825510;29;19963;-77
2022/06/21 01:02:26;;;;;;;;;;;;;;;13.51;70.81;97694.44;4825520;29;20301;-77
2022/06/21 01:04:56;;;;;;;;;;;;;;;13.48;70.09;97690.25;4795899;29;19928;-80
2022/06/21 01:07:22;;;;;;;;;;;;;;;13.58;69.96;97681.97;4810761;29;20278;-78
2022/06/21 01:09:54;;;;;;;;;;;;;;;13.54;69.55;97694.06;4795711;29;20387;-78
2022/06/21 01:12:27;;;;;;;;;;;;;;;13.57;69.45;97691.00;4825883;29;19928;-78
2022/06/21 01:14:56;;;;;;;;;;;;;;;13.67;68.87;97694.28;4795509;29;19935;-78
2022/06/21 01:17:23;;;;;;;;;;;;;;;13.78;68.65;97691.16;4810294;29;19928;-78
2022/06/21 01:19:55;;;;;;;;;;;;;;;13.73;68.26;97692.75;4810252;29;19928;-77
2022/06/21 01:22:36;;;;;;;;;;;;;;;13.76;68.33;97686.97;4795213;29;19928;-78
2022/06/21 01:25:04;;;;;;;;;;;;;;;13.77;67.81;97689.50;4825672;29;19975;-79
2022/06/21 01:27:30;;;;;;;;;;;;;;;13.71;67.73;97682.16;4824824;29;20023;-79
2022/06/21 01:29:57;;;;;;;;;;;;;;;13.87;67.28;97694.56;4795403;29;20028;-78
2022/06/21 01:32:23;;;;;;;;;;;;;;;13.91;66.75;97684.31;4810212;29;19928;-79
2022/06/21 01:34:48;;;;;;;;;;;;;;;13.91;66.23;97684.31;4809861;29;19935;-82
2022/06/21 01:37:18;;;;;;;;;;;;;;;13.99;66.28;97684.22;4809597;29;20035;-80
2022/06/21 01:39:51;;;;;;;;;;;;;;;14.20;66.13;97678.94;4794677;29;19971;-79
2022/06/21 01:42:19;;;;;;;;;;;;;;;14.28;65.47;97681.50;4810007;29;19932;-79
2022/06/21 01:44:48;;;;;;;;;;;;;;;14.41;64.98;97688.94;4809876;29;19952;-79
2022/06/21 01:47:16;;;;;;;;;;;;;;;14.52;65.26;97691.19;4825413;29;19935;-78
2022/06/21 01:49:46;;;;;;;;;;;;;;;14.54;64.76;97704.41;4826355;29;19928;-78
2022/06/21 01:52:17;;;;;;;;;;;;;;;14.56;64.72;97686.25;4810432;29;19928;-80
2022/06/21 01:54:46;;;;;;;;;;;;;;;14.63;64.14;97687.16;4825901;29;19928;-79
2022/06/21 01:57:13;;;;;;;;;;;;;;;14.69;64.28;97688.25;4825136;29;19928;-80
2022/06/21 01:59:44;;;;;;;;;;;;;;;14.77;63.91;97688.97;4809466;29;19929;-78
2022/06/21 02:02:12;;;;;;;;;;;;;;;14.77;63.22;97686.28;4809640;29;19928;-80
2022/06/21 02:04:44;;;;;;;;;;;;;;;14.90;63.34;97691.00;4809601;29;19936;-80
2022/06/21 02:07:13;;;;;;;;;;;;;;;14.85;62.46;97687.19;4809267;29;19929;-81
2022/06/21 02:09:51;;;;;;;;;;;;;;;14.92;62.34;97690.78;4823672;29;20235;-79
2022/06/21 02:12:17;;;;;;;;;;;;;;;15.01;62.83;97692.34;4809229;29;19960;-80
2022/06/21 02:14:45;;;;;;;;;;;;;;;15.18;62.46;97696.44;4809102;29;20357;-78
2022/06/21 02:17:11;;;;;;;;;;;;;;;15.36;62.37;97700.53;4809281;29;20017;-79
2022/06/21 02:19:38;;;;;;;;;;;;;;;15.44;61.47;97697.72;4825327;29;19964;-79
2022/06/21 02:22:05;;;;;;;;;;;;;;;15.42;60.93;97708.69;4808978;29;19929;-79
2022/06/21 02:24:31;;;;;;;;;;;;;;;15.48;61.27;97707.06;4793927;29;19929;-79
2022/06/21 02:26:59;;;;;;;;;;;;;;;15.35;61.50;97698.88;4825103;29;19928;-78
2022/06/21 02:29:25;;;;;;;;;;;;;;;15.38;61.30;97709.25;4825791;29;19929;-79
2022/06/21 02:31:51;;;;;;;;;;;;;;;15.45;61.50;97705.59;4808893;29;19935;-78
2022/06/21 02:34:19;;;;;;;;;;;;;;;15.49;61.16;97706.03;4823928;29;19932;-80
2022/06/21 02:36:48;;;;;;;;;;;;;;;15.44;60.62;97708.47;4793675;29;19928;-80
2022/06/21 02:39:17;;;;;;;;;;;;;;;15.40;61.03;97720.66;4812461;29;19939;-80
2022/06/21 02:41:46;;;;;;;;;;;;;;;15.15;62.19;97704.88;4842994;29;19993;-79
2022/06/21 02:44:16;;;;;;;;;;;;;;;15.28;61.71;97702.34;4827312;29;19961;-80
2022/06/21 02:46:44;;;;;;;;;;;;;;;15.43;61.17;97717.59;4803641;29;19928;-80
2022/06/21 02:49:09;;;;;;;;;;;;;;;15.41;61.92;97714.25;4843042;29;19928;-80
2022/06/21 02:51:38;;;;;;;;;;;;;;;15.38;62.09;97720.00;4841745;29;20380;-80
2022/06/21 02:54:22;;;;;;;;;;;;;;;15.51;63.13;97714.75;4841826;29;19951;-81
2022/06/21 02:57:08;;;;;;;;;;;;;;;15.55;62.87;97710.66;4827079;29;19984;-80
2022/06/21 02:59:36;;;;;;;;;;;;;;;15.54;62.86;97709.81;4832366;29;19928;-81
2022/06/21 03:02:07;;;;;;;;;;;;;;;15.57;62.16;97708.63;4826719;29;20023;-84
2022/06/21 03:04:36;;;;;;;;;;;;;;;15.63;62.21;97713.19;4841730;29;20300;-80
2022/06/21 03:07:02;;;;;;;;;;;;;;;15.80;62.14;97724.56;4841639;29;19932;-80
2022/06/21 03:09:28;;;;;;;;;;;;;;;15.81;62.05;97720.00;4842358;29;19932;-82
2022/06/21 03:11:57;;;;;;;;;;;;;;;15.75;62.07;97724.31;4857569;29;20395;-84
2022/06/21 03:14:25;;;;;;;;;;;;;;;15.87;62.04;97719.22;4827061;29;19928;-87
2022/06/21 03:16:52;;;;;;;;;;;;;;;16.07;61.70;97713.97;4828889;29;19951;-82
2022/06/21 03:19:26;;;;;;;;;;;;;;;16.03;60.71;97718.94;4829138;29;19929;-84
2022/06/21 03:21:52;;;;;;;;;;;;;;;16.10;61.26;97725.19;4831357;29;20392;-81
2022/06/21 03:24:20;;;;;;;;;;;;;;;16.12;60.94;97716.91;4826453;29;20060;-81
2022/06/21 03:26:53;;;;;;;;;;;;;;;16.20;60.29;97731.06;4841679;29;20059;-81
2022/06/21 03:29:19;;;;;;;;;;;;;;;16.23;60.34;97708.25;4842492;29;19936;-80
2022/06/21 03:31:48;;;;;;;;;;;;;;;16.24;60.35;97716.13;4841376;29;19928;-83
2022/06/21 03:34:15;;;;;;;;;;;;;;;16.26;61.05;97715.97;4811099;29;20384;-82
2022/06/21 03:36:41;;;;;;;;;;;;;;;16.10;58.82;97733.28;4826099;29;19928;-80
2022/06/21 03:42:09;;;;;;;;;;;;;;;16.19;59.88;97744.75;4841814;29;19928;-82
2022/06/21 03:44:40;;;;;;;;;;;;;;;16.18;59.28;97737.69;4828910;29;19932;-83
2022/06/21 03:47:12;;;;;;;;;;;;;;;16.22;59.46;97739.78;4857061;29;19988;-81
2022/06/21 03:49:58;;;;;;;;;;;;;;;16.21;58.41;97738.13;4828225;29;19974;-82
2022/06/21 03:52:42;;;;;;;;;;;;;;;16.18;59.63;97735.81;4842137;29;19961;-79
2022/06/21 03:55:15;;;;;;;;;;;;;;;16.32;58.62;97749.38;4826618;29;20384;-80
2022/06/21 03:57:44;;;;;;;;;;;;;;;16.39;59.33;97744.84;4826069;29;19929;-85
2022/06/21 04:00:11;;;;;;;;;;;;;;;16.46;58.54;97740.34;4826043;29;20004;-84
2022/06/21 04:02:40;;;;;;;;;;;;;;;16.54;59.02;97748.25;4842211;29;20020;-78
2022/06/21 04:05:09;;;;;;;;;;;;;;;16.90;57.37;97753.44;4826430;29;20031;-79
2022/06/21 04:07:38;;;;;;;;;;;;;;;16.69;56.43;97754.34;4825936;29;19944;-81
2022/06/21 04:10:16;;;;;;;;;;;;;;;16.55;56.96;97744.53;4842338;29;19933;-82
2022/06/21 04:12:48;;;;;;;;;;;;;;;16.55;57.17;97749.94;4841280;29;19928;-80
2022/06/21 04:15:18;;;;;;;;;;;;;;;16.58;55.92;97776.50;4840842;29;20349;-78
2022/06/21 04:17:48;;;;;;;;;;;;;;;16.42;56.30;97755.25;4825842;29;19994;-85
2022/06/21 04:20:21;;;;;;;;;;;;;;;16.62;56.40;97756.19;4826449;29;19951;-79
2022/06/21 04:23:00;;;;;;;;;;;;;;;16.78;54.89;97754.22;4841344;29;20281;-76
2022/06/21 04:25:28;;;;;;;;;;;;;;;16.71;54.63;97797.34;4841956;29;19935;-78
2022/06/21 04:28:17;;;;;;;;;;;;;;;16.80;54.86;97758.38;4840848;29;19976;-78
2022/06/21 04:30:52;;;;;;;;;;;;;;;16.90;54.03;97774.19;4841055;29;19928;-78
2022/06/21 04:33:21;;;;;;;;;;;;;;;16.82;53.98;97768.97;4841102;29;19928;-78
2022/06/21 04:36:05;;;;;;;;;;;;;;;16.87;53.32;97751.13;4844445;29;20314;-78
2022/06/21 04:38:35;;;;;;;;;;;;;;;16.92;53.26;97755.94;4844070;29;19932;-78
2022/06/21 04:41:01;;;;;;;;;;;;;;;17.13;53.90;97753.09;4845216;29;20028;-76
2022/06/21 04:43:26;;;;;;;;;;;;;;;17.27;53.80;97772.06;4845403;29;19939;-79
2022/06/21 04:46:03;;;;;;;;;;;;;;;17.21;53.13;97755.59;4843797;29;19996;-78
2022/06/21 04:48:43;;;;;;;;;;;;;;;17.37;52.45;97769.78;4828750;29;19928;-79
2022/06/21 04:51:24;;;;;;;;;;;;;;;17.36;52.85;97757.31;4828384;29;20052;-78
2022/06/21 04:53:54;;;;;;;;;;;;;;;17.34;52.51;97759.38;4823437;29;19944;-78
2022/06/21 04:56:26;;;;;;;;;;;;;;;17.32;52.69;97769.56;4820637;29;19929;-81
2022/06/21 04:58:54;;;;;;;;;;;;;;;17.46;53.02;97752.34;4828850;29;20036;-79
2022/06/21 05:01:37;;;;;;;;;;;;;;;17.78;52.16;97760.72;4826956;29;19928;-79
2022/06/21 05:04:06;;;;;;;;;;;;;;;17.74;51.96;97771.06;4825529;29;20023;-82
2022/06/21 05:06:32;;;;;;;;;;;;;;;17.56;50.09;97774.38;4825631;29;19929;-78
2022/06/21 05:08:58;;;;;;;;;;;;;;;17.63;51.18;97753.59;4825411;29;19933;-79
2022/06/21 05:11:23;;;;;;;;;;;;;;;17.64;52.13;97744.47;4810151;29;19953;-78
2022/06/21 05:13:51;;;;;;;;;;;;;;;17.70;51.07;97762.53;4825292;29;19929;-79
2022/06/21 05:16:23;;;;;;;;;;;;;;;17.58;50.19;97756.09;4795391;29;19937;-77
2022/06/21 05:18:58;;;;;;;;;;;;;;;17.43;49.63;97750.06;4810605;29;19935;-78
2022/06/21 05:21:33;;;;;;;;;;;;;;;17.50;49.39;97753.59;4825461;29;19981;-78
2022/06/21 05:23:58;;;;;;;;;;;;;;;17.68;49.55;97744.91;4825421;29;19928;-80
2022/06/21 05:26:40;;;;;;;;;;;;;;;17.81;50.82;97744.09;4826212;29;19928;-78
2022/06/21 05:29:11;;;;;;;;;;;;;;;18.03;50.58;97755.53;4825344;29;19985;-82
2022/06/21 05:31:40;;;;;;;;;;;;;;;17.97;49.98;97738.25;4826219;29;19928;-79
2022/06/21 05:34:12;;;;;;;;;;;;;;;18.22;50.13;97737.63;4826614;29;20340;-79
2022/06/21 05:36:47;;;;;;;;;;;;;;;18.33;49.44;97742.38;4809666;29;20427;-79
2022/06/21 05:39:20;;;;;;;;;;;;;;;18.19;49.08;97747.78;4840043;29;19983;-79
2022/06/21 05:41:47;;;;;;;;;;;;;;;18.10;49.87;97757.19;4798064;29;20092;-78
2022/06/21 05:44:17;;;;;;;;;;;;;;;18.18;50.50;97743.44;4797508;29;20035;-78
2022/06/21 05:46:53;;;;;;;;;;;;;;;18.32;49.97;97748.84;4829049;29;20345;-80
2022/06/21 05:49:21;;;;;;;;;;;;;;;18.48;49.07;97761.91;4813345;29;20009;-79
2022/06/21 05:51:48;;;;;;;;;;;;;;;18.69;48.83;97761.66;4825363;29;19940;-79
2022/06/21 05:54:16;;;;;;;;;;;;;;;18.64;48.66;97757.91;4824486;29;20413;-77
2022/06/21 05:56:42;;;;;;;;;;;;;;;18.84;48.94;97738.91;4794486;29;19928;-79
2022/06/21 05:59:11;;;;;;;;;;;;;;;19.22;47.99;97746.22;4809555;29;19991;-78
2022/06/21 06:01:47;;;;;;;;;;;;;;;19.27;46.97;97760.78;4809334;29;19935;-78
2022/06/21 06:04:35;;;;;;;;;;;;;;;19.42;46.30;97760.50;4809343;29;19936;-80
2022/06/21 06:07:01;;;;;;;;;;;;;;;19.55;47.00;97751.44;4825299;29;19935;-79
2022/06/21 06:09:30;;;;;;;;;;;;;;;19.44;46.94;97758.38;4809570;29;20034;-79
2022/06/21 06:12:03;;;;;;;;;;;;;;;19.55;46.43;97756.84;4794199;29;19929;-79
2022/06/21 06:14:48;;;;;;;;;;;;;;;19.83;47.03;97759.22;4794280;29;19929;-78
2022/06/21 06:17:23;;;;;;;;;;;;;;;20.08;44.80;97753.75;4825420;29;19928;-78
2022/06/21 06:19:53;;;;;;;;;;;;;;;20.20;42.72;97754.72;4824457;29;19929;-77
2022/06/21 06:22:34;;;;;;;;;;;;;;;20.29;42.89;97768.81;4824103;29;19988;-79
2022/06/21 06:25:04;;;;;;;;;;;;;;;20.25;44.32;97762.19;4824297;29;20367;-77
2022/06/21 06:27:32;;;;;;;;;;;;;;;20.16;44.09;97761.63;4825370;29;20443;-78
2022/06/21 06:30:01;;;;;;;;;;;;;;;20.28;44.14;97759.03;4839478;29;19936;-79
2022/06/21 06:32:31;;;;;;;;;;;;;;;20.22;43.52;97762.63;4825326;29;19940;-80
2022/06/21 06:34:57;;;;;;;;;;;;;;;20.17;42.70;97754.31;4794266;29;19940;-78
2022/06/21 06:37:36;;;;;;;;;;;;;;;20.04;44.15;97758.78;4825431;29;19928;-79
2022/06/21 06:40:06;;;;;;;;;;;;;;;20.24;44.46;97757.81;4794288;29;20326;-79
2022/06/21 06:42:37;;;;;;;;;;;;;;;20.36;43.10;97772.28;4794602;29;19929;-79
2022/06/21 06:45:14;;;;;;;;;;;;;;;20.11;42.92;97756.84;4809969;29;20300;-77
2022/06/21 06:47:42;;;;;;;;;;;;;;;20.28;43.84;97769.88;4825227;29;19986;-79
2022/06/21 06:50:26;;;;;;;;;;;;;;;20.22;42.37;97787.03;4810247;29;19929;-79
2022/06/21 06:52:56;;;;;;;;;;;;;;;19.88;43.70;97768.31;4826325;29;19928;-79
2022/06/21 06:55:21;;;;;;;;;;;;;;;19.79;44.15;97785.94;4808712;29;20015;-79
2022/06/21 06:57:53;;;;;;;;;;;;;;;20.10;44.60;97776.09;4808255;29;20074;-79
2022/06/21 07:00:21;;;;;;;;;;;;;;;20.30;43.71;97784.03;4808440;29;20401;-79
2022/06/21 07:02:52;;;;;;;;;;;;;;;20.46;42.86;97759.06;4825281;29;20400;-78
2022/06/21 07:05:22;;;;;;;;;;;;;;;20.43;42.91;97781.22;4809279;29;19929;-79
2022/06/21 07:07:57;;;;;;;;;;;;;;;20.35;43.73;97766.03;4825048;29;20363;-79
2022/06/21 07:10:24;;;;;;;;;;;;;;;20.65;44.29;97769.94;4793490;29;19933;-78
2022/06/21 07:12:51;;;;;;;;;;;;;;;20.76;42.90;97755.59;4838578;29;19929;-78
2022/06/21 07:15:17;;;;;;;;;;;;;;;20.61;42.50;97775.84;4808302;29;20301;-77
2022/06/21 07:17:47;;;;;;;;;;;;;;;20.33;42.13;97737.47;4825066;29;19928;-78
2022/06/21 07:20:14;;;;;;;;;;;;;;;20.76;42.54;97742.03;4794236;29;19997;-77
2022/06/21 07:22:40;;;;;;;;;;;;;;;20.80;42.73;97754.13;4824764;29;20400;-79
2022/06/21 07:25:06;;;;;;;;;;;;;;;20.54;41.08;97814.97;4807815;29;19928;-79
2022/06/21 07:27:34;;;;;;;;;;;;;;;20.44;42.06;97757.59;4823548;29;20305;-79
2022/06/21 07:30:12;;;;;;;;;;;;;;;20.55;42.11;97756.91;4808254;29;19929;-79
2022/06/21 07:32:41;;;;;;;;;;;;;;;20.89;41.67;97763.59;4792830;29;20019;-79
2022/06/21 07:35:16;;;;;;;;;;;;;;;21.01;41.98;97794.38;4823257;29;20000;-79
2022/06/21 07:37:56;;;;;;;;;;;;;;;21.10;41.98;97776.72;4838435;29;19968;-79
2022/06/21 07:40:24;;;;;;;;;;;;;;;21.02;41.71;97774.28;4808426;29;19933;-79
2022/06/21 07:43:16;;;;;;;;;;;;;;;21.01;42.43;97729.19;4823295;29;19936;-80
2022/06/21 07:45:45;;;;;;;;;;;;;;;21.04;42.20;97769.47;4778520;29;20032;-77
2022/06/21 07:48:19;;;;;;;;;;;;;;;21.06;41.42;97769.22;4838523;29;19936;-78
2022/06/21 07:50:49;;;;;;;;;;;;;;;20.99;41.18;97768.50;4793253;29;19936;-77
2022/06/21 07:53:38;;;;;;;;;;;;;;;20.96;42.18;97764.34;4807918;29;20397;-77
2022/06/21 07:56:13;;;;;;;;;;;;;;;21.22;41.26;97774.06;4810030;29;19929;-79
2022/06/21 07:59:03;;;;;;;;;;;;;;;21.17;41.39;97751.34;4807898;29;19929;-78
2022/06/21 08:07:17;;;;;;;;;;;;;;;21.48;41.51;97756.59;4824860;29;19935;-79
2022/06/21 08:09:48;;;;;;;;;;;;;;;21.28;41.45;97751.38;4827807;29;19933;-80
2022/06/21 08:12:14;;;;;;;;;;;;;;;21.31;41.53;97761.78;4827939;29;20290;-79
2022/06/21 08:14:40;;;;;;;;;;;;;;;21.71;40.85;97758.53;4827517;29;19935;-79
2022/06/21 08:17:12;;;;;;;;;;;;;;;21.97;40.30;97751.84;4811235;29;20028;-79
2022/06/21 08:19:45;;;;;;;;;;;;;;;21.94;40.57;97768.63;4825643;29;19962;-79
2022/06/21 08:22:16;;;;;;;;;;;;;;;21.62;40.27;97780.84;4796200;29;20027;-78
2022/06/21 08:24:47;;;;;;;;;;;;;;;21.67;40.73;97761.97;4811564;29;19929;-79
2022/06/21 08:27:15;;;;;;;;;;;;;;;21.77;41.27;97797.56;4841366;29;19933;-79
2022/06/21 08:29:46;;;;;;;;;;;;;;;21.58;40.00;97762.28;4810821;29;19993;-78
2022/06/21 08:32:31;;;;;;;;;;;;;;;21.61;39.56;97787.34;4811267;29;20462;-78
2022/06/21 08:34:59;;;;;;;;;;;;;;;21.50;41.22;97764.50;4796117;29;19928;-78
2022/06/21 08:37:28;;;;;;;;;;;;;;;21.51;42.37;97783.31;4840806;29;20038;-78
2022/06/21 08:40:10;;;;;;;;;;;;;;;21.70;40.60;97766.91;4826900;29;20385;-79
2022/06/21 08:42:55;;;;;;;;;;;;;;;21.74;40.88;97759.94;4827167;29;19933;-78
2022/06/21 08:48:20;;;;;;;;;;;;;;;22.00;40.14;97754.09;4841200;29;19936;-79
2022/06/21 08:50:56;;;;;;;;;;;;;;;22.19;40.91;97762.19;4810555;29;19933;-78
2022/06/21 08:53:22;;;;;;;;;;;;;;;22.28;40.84;97749.88;4795850;29;19929;-77
2022/06/21 08:56:02;;;;;;;;;;;;;;;22.24;41.07;97771.31;4810543;29;19936;-78
2022/06/21 08:58:27;;;;;;;;;;;;;;;22.33;40.80;97763.59;4795523;29;19928;-79
2022/06/21 09:01:03;;;;;;;;;;;;;;;22.18;41.31;97782.31;4810317;29;19940;-78
2022/06/21 09:03:47;;;;;;;;;;;;;;;22.39;40.85;97768.13;4795956;29;19936;-78
2022/06/21 09:06:21;;;;;;;;;;;;;;;22.85;39.17;97751.94;4795416;29;20054;-79
2022/06/21 09:08:56;;;;;;;;;;;;;;;23.14;39.67;97770.03;4810387;29;20300;-79
2022/06/21 09:11:21;;;;;;;;;;;;;;;22.90;39.27;97769.22;4826260;29;19931;-79
2022/06/21 09:13:47;;;;;;;;;;;;;;;22.68;39.90;97770.91;4825114;29;20019;-78
2022/06/21 09:16:12;;;;;;;;;;;;;;;22.35;40.12;97777.00;4810632;29;19928;-78
2022/06/21 09:18:56;;;;;;;;;;;;;;;22.65;39.40;97794.03;4825799;29;19936;-78
2022/06/21 09:21:30;;;;;;;;;;;;;;;22.70;39.45;97768.78;4810040;29;20005;-78
2022/06/21 09:23:58;;;;;;;;;;;;;;;22.38;39.64;97768.34;4825216;29;19928;-78
2022/06/21 09:26:44;;;;;;;;;;;;;;;22.70;40.37;97764.16;4809688;29;20005;-78
2022/06/21 09:29:19;;;;;;;;;;;;;;;23.20;38.63;97766.31;4809757;29;19929;-78
2022/06/21 09:31:51;;;;;;;;;;;;;;;23.65;38.29;97781.09;4794960;29;19936;-79
2022/06/21 09:34:32;;;;;;;;;;;;;;;23.37;38.93;97780.03;4840148;29;19988;-79
2022/06/21 09:37:08;;;;;;;;;;;;;;;23.40;38.43;97776.81;4809700;29;19929;-79
2022/06/21 09:39:41;;;;;;;;;;;;;;;23.79;37.25;97776.19;4794699;29;19928;-78
2022/06/21 09:42:12;;;;;;;;;;;;;;;23.54;38.17;97774.59;4826162;29;19932;-78
2022/06/21 09:44:52;;;;;;;;;;;;;;;23.51;37.91;97775.94;4839984;29;19983;-78
2022/06/21 09:47:47;;;;;;;;;;;;;;;23.55;37.32;97764.56;4795164;29;19929;-79
2022/06/21 09:50:22;;;;;;;;;;;;;;;23.55;37.39;97797.28;4830952;29;20019;-77
2022/06/21 09:52:58;;;;;;;;;;;;;;;23.35;37.71;97792.25;4844244;29;19928;-79
2022/06/21 09:55:31;;;;;;;;;;;;;;;23.65;37.81;97770.16;4812695;29;20400;-78
2022/06/21 09:58:04;;;;;;;;;;;;;;;23.39;38.98;97786.03;4827547;29;19981;-78
2022/06/21 10:00:42;;;;;;;;;;;;;;;23.31;37.95;97772.81;4827616;29;19928;-80
2022/06/21 10:03:31;;;;;;;;;;;;;;;23.44;38.35;97780.72;4827189;29;19928;-79
2022/06/21 10:06:01;;;;;;;;;;;;;;;24.08;37.79;97764.13;4827301;29;19976;-82
2022/06/21 10:08:34;;;;;;;;;;;;;;;24.04;37.69;97789.47;4844379;29;19936;-82
2022/06/21 10:11:23;;;;;;;;;;;;;;;23.92;36.78;97790.34;4828176;29;19931;-83
2022/06/21 10:13:48;;;;;;;;;;;;;;;24.04;36.85;97779.34;4822399;29;19928;-79
2022/06/21 10:16:33;;;;;;;;;;;;;;;24.53;36.63;97789.72;4843315;29;20404;-77
2022/06/21 10:19:10;;;;;;;;;;;;;;;24.56;36.13;97789.19;4826307;29;19935;-78
2022/06/21 10:21:58;;;;;;;;;;;;;;;24.84;35.62;97789.06;4826526;29;19931;-80
2022/06/21 10:24:53;;;;;;;;;;;;;;;24.87;35.18;97804.97;4826870;29;19935;-79
2022/06/21 10:27:25;;;;;;;;;;;;;;;24.53;36.87;97792.44;4830961;29;19928;-77
2022/06/21 10:30:01;;;;;;;;;;;;;;;24.92;36.10;97798.72;4841268;29;19935;-82
2022/06/21 10:32:34;;;;;;;;;;;;;;;24.59;37.31;97802.34;4825254;29;19935;-80
2022/06/21 10:35:16;;;;;;;;;;;;;;;24.41;36.29;97792.50;4842141;29;19929;-82
2022/06/21 10:37:48;;;;;;;;;;;;;;;24.34;36.41;97794.59;4841309;29;19928;-79
2022/06/21 10:40:32;;;;;;;;;;;;;;;24.38;35.66;97782.91;4826342;29;19928;-78
2022/06/21 10:42:58;;;;;;;;;;;;;;;24.88;35.57;97779.28;4826301;29;20080;-78
2022/06/21 10:45:43;;;;;;;;;;;;;;;24.47;36.10;97784.16;4842338;29;20000;-78
2022/06/21 10:48:27;;;;;;;;;;;;;;;24.30;36.37;97810.63;4843140;29;19936;-78
2022/06/21 10:51:11;;;;;;;;;;;;;;;24.94;35.51;97799.31;4827138;29;20315;-77
2022/06/21 10:53:55;;;;;;;;;;;;;;;24.86;36.05;97803.31;4835390;29;20410;-79
2022/06/21 11:01:16;;;;;;;;;;;;;;;23.70;37.31;97798.41;4816030;29;19929;-80
2022/06/21 11:02:25;;;;;;;;;;;;;;;24.17;36.66;97819.13;4842803;29;20400;-78
2022/06/21 11:05:08;;;;;;;;;;;;;;;24.22;37.31;97813.75;4826887;29;19928;-78
2022/06/21 11:07:33;;;;;;;;;;;;;;;25.10;36.79;97811.31;4841918;29;19928;-79
2022/06/21 11:10:05;;;;;;;;;;;;;;;26.04;35.58;97801.97;4843258;29;20137;-78
2022/06/21 11:15:15;;;;;;;;;;;;;;;26.16;34.23;97810.81;4841928;29;19976;-78
2022/06/21 11:17:49;;;;;;;;;;;;;;;26.34;33.37;97812.34;4842640;29;20375;-80
2022/06/21 11:20:20;;;;;;;;;;;;;;;26.75;32.44;97815.41;4842462;29;19929;-79
2022/06/21 11:23:25;;;;;;;;;;;;;;;27.49;32.11;97800.69;4841376;29;20028;-79
2022/06/21 11:26:11;;;;;;;;;;;;;;;27.02;32.55;97812.56;4803602;29;19928;-79
2022/06/21 11:28:40;;;;;;;;;;;;;;;26.87;32.59;97807.81;4774240;29;19945;-80
2022/06/21 11:31:14;;;;;;;;;;;;;;;27.48;31.68;97799.88;4828018;29;19928;-79
2022/06/21 11:33:40;;;;;;;;;;;;;;;28.00;31.61;97798.91;4841558;29;19992;-79
2022/06/21 11:36:18;;;;;;;;;;;;;;;29.25;30.51;97805.66;4825906;29;20389;-78
2022/06/21 11:39:11;;;;;;;;;;;;;;;28.79;29.80;97811.25;4825966;29;19929;-80
2022/06/21 11:44:40;;;;;;;;;;;;;;;28.74;29.51;97805.78;4841114;29;20389;-80
2022/06/21 11:47:19;;;;;;;;;;;;;;;28.84;29.31;97795.84;4841265;29;19928;-80
2022/06/21 11:49:56;;;;;;;;;;;;;;;28.83;29.29;97796.97;4842620;29;19928;-80
2022/06/21 11:52:31;;;;;;;;;;;;;;;29.93;27.65;97805.03;4825721;29;19932;-80
2022/06/21 11:55:00;;;;;;;;;;;;;;;30.15;27.02;97796.34;4841452;29;19967;-81
2022/06/21 11:57:33;;;;;;;;;;;;;;;29.44;27.87;97802.28;4825970;29;19975;-81
2022/06/21 12:00:20;;;;;;;;;;;;;;;28.64;29.30;97797.56;4841123;29;20357;-80
2022/06/21 12:02:51;;;;;;;;;;;;;;;29.38;28.29;97795.97;4834732;29;19929;-80
2022/06/21 12:05:38;;;;;;;;;;;;;;;29.60;28.16;97794.78;4841024;29;19972;-79
2022/06/21 12:08:08;;;;;;;;;;;;;;;29.43;27.13;97839.16;4840737;29;19975;-80
2022/06/21 12:10:50;;;;;;;;;;;;;;;27.77;29.16;97808.50;4825522;29;19952;-79
2022/06/21 12:13:36;;;;;;;;;;;;;;;26.32;31.58;97815.34;4825615;29;20308;-79
2022/06/21 12:16:01;;;;;;;;;;;;;;;26.63;31.85;97815.63;4842463;29;19929;-78
2022/06/21 12:18:29;;;;;;;;;;;;;;;27.20;30.59;97806.63;4841974;29;20415;-78
2022/06/21 12:20:58;;;;;;;;;;;;;;;26.86;31.36;97812.47;4840149;29;19928;-79
2022/06/21 12:23:41;;;;;;;;;;;;;;;26.43;32.40;97815.41;4841237;29;19928;-79
2022/06/21 12:26:27;;;;;;;;;;;;;;;25.95;32.98;97814.47;4840809;29;20035;-77
2022/06/21 12:28:55;;;;;;;;;;;;;;;25.48;33.87;97809.56;4825670;29;19929;-78
2022/06/21 12:31:23;;;;;;;;;;;;;;;25.69;33.48;97814.19;4841838;29;19928;-79
2022/06/21 12:33:51;;;;;;;;;;;;;;;25.50;33.29;97810.13;4825387;29;19977;-78
2022/06/21 12:36:43;;;;;;;;;;;;;;;25.16;34.05;97813.00;4842314;29;19936;-78
2022/06/21 12:39:12;;;;;;;;;;;;;;;24.87;34.75;97826.81;4824970;29;20028;-79
2022/06/21 12:41:37;;;;;;;;;;;;;;;24.62;35.22;97812.78;4840659;29;19928;-79
2022/06/21 12:44:16;;;;;;;;;;;;;;;24.72;35.41;97804.75;4844238;29;19928;-80
2022/06/21 12:46:57;;;;;;;;;;;;;;;25.29;34.78;97795.41;4807447;29;19929;-78
2022/06/21 12:49:34;;;;;;;;;;;;;;;25.61;34.32;97809.16;4807146;29;19933;-79
2022/06/21 12:52:07;;;;;;;;;;;;;;;25.78;34.66;97806.34;4821953;29;19951;-79
2022/06/21 12:54:46;;;;;;;;;;;;;;;26.03;33.98;97800.31;4809567;29;19936;-80
2022/06/21 12:57:20;;;;;;;;;;;;;;;25.48;33.81;97809.56;4841315;29;19984;-78
2022/06/21 12:59:58;;;;;;;;;;;;;;;26.29;32.98;97821.38;4835412;29;20043;-80
2022/06/21 13:02:42;;;;;;;;;;;;;;;26.56;32.06;97813.09;4828375;29;19929;-80
2022/06/21 13:05:27;;;;;;;;;;;;;;;25.90;34.14;97818.78;4803154;29;20412;-82
2022/06/21 13:08:13;;;;;;;;;;;;;;;25.04;34.54;97834.97;4810231;29;19968;-80
2022/06/21 13:10:45;;;;;;;;;;;;;;;24.30;36.17;97832.47;4810376;29;19940;-80
2022/06/21 13:13:17;;;;;;;;;;;;;;;24.02;36.60;97821.63;4833433;29;20011;-81
2022/06/21 13:16:04;;;;;;;;;;;;;;;23.65;37.31;97820.09;4830853;29;19936;-81
2022/06/21 13:18:31;;;;;;;;;;;;;;;23.69;37.53;97820.47;4834031;29;20366;-80
2022/06/21 13:21:15;;;;;;;;;;;;;;;23.62;37.90;97819.75;4834179;29;19936;-79
2022/06/21 13:23:50;;;;;;;;;;;;;;;23.39;39.24;97816.03;4816955;29;19935;-81
2022/06/21 13:26:19;;;;;;;;;;;;;;;23.34;39.33;97810.50;4841646;29;20031;-80
2022/06/21 13:28:47;;;;;;;;;;;;;;;23.03;40.23;97812.59;4818897;29;20078;-78
2022/06/21 13:31:17;;;;;;;;;;;;;;;22.92;40.31;97810.72;4823482;29;20413;-80
2022/06/21 13:34:05;;;;;;;;;;;;;;;22.95;40.24;97810.25;4814102;29;19928;-80
2022/06/21 13:36:37;;;;;;;;;;;;;;;22.93;40.30;97795.19;4816087;29;20031;-80